sensor_id;sensor_type;location;lat;lon;timestamp;pressure;altitude;pressure_sealevel;temperature;humidity
38466;BME280;24244;51.950;5.902;2024-01-16T00:02:01;100789.56;;;1.87;87.58
38466;BME280;24244;51.950;5.902;2024-01-16T00:04:28;100783.50;;;1.86;87.93
38466;BME280;24244;51.950;5.902;2024-01-16T00:06:58;100783.50;;;1.86;87.94
38466;BME280;24244;51.950;5.902;2024-01-16T00:09:25;100780.19;;;1.84;87.27
38466;BME280;24244;51.950;5.902;2024-01-16T00:11:52;100776.75;;;1.84;87.30
38466;BME280;24244;51.950;5.902;2024-01-16T00:14:19;100775.91;;;1.83;87.90
38466;BME280;24244;51.950;5.902;2024-01-16T00:16:47;100771.63;;;1.82;87.92
38466;BME280;24244;51.950;5.902;2024-01-16T00:19:17;100761.41;;;1.79;87.42
38466;BME280;24244;51.950;5.902;2024-01-16T00:21:44;100771.03;;;1.79;87.52
38466;BME280;24244;51.950;5.902;2024-01-16T00:24:16;100771.19;;;1.77;87.61
38466;BME280;24244;51.950;5.902;2024-01-16T00:26:43;100770.50;;;1.75;87.46
38466;BME280;24244;51.950;5.902;2024-01-16T00:29:10;100768.13;;;1.72;87.21
38466;BME280;24244;51.950;5.902;2024-01-16T00:31:39;100778.88;;;1.69;87.37
38466;BME280;24244;51.950;5.902;2024-01-16T00:34:06;100779.22;;;1.65;87.86
38466;BME280;24244;51.950;5.902;2024-01-16T00:36:33;100787.94;;;1.65;87.67
38466;BME280;24244;51.950;5.902;2024-01-16T00:39:00;100791.50;;;1.64;87.70
38466;BME280;24244;51.950;5.902;2024-01-16T00:41:31;100789.16;;;1.61;87.56
38466;BME280;24244;51.950;5.902;2024-01-16T00:43:57;100797.00;;;1.61;87.51
38466;BME280;24244;51.950;5.902;2024-01-16T00:46:24;100801.31;;;1.62;87.47
38466;BME280;24244;51.950;5.902;2024-01-16T00:48:52;100806.53;;;1.62;87.43
38466;BME280;24244;51.950;5.902;2024-01-16T00:51:19;100797.00;;;1.61;87.84
38466;BME280;24244;51.950;5.902;2024-01-16T00:53:46;100804.88;;;1.61;87.41
38466;BME280;24244;51.950;5.902;2024-01-16T00:56:14;100802.25;;;1.61;87.27
38466;BME280;24244;51.950;5.902;2024-01-16T00:58:43;100799.63;;;1.61;87.38
38466;BME280;24244;51.950;5.902;2024-01-16T01:01:10;100811.06;;;1.60;87.18
38466;BME280;24244;51.950;5.902;2024-01-16T01:03:37;100825.13;;;1.59;87.51
38466;BME280;24244;51.950;5.902;2024-01-16T01:06:04;100838.94;;;1.61;87.29
38466;BME280;24244;51.950;5.902;2024-01-16T01:08:31;100837.25;;;1.60;87.41
38466;BME280;24244;51.950;5.902;2024-01-16T01:10:58;100836.44;;;1.60;87.28
38466;BME280;24244;51.950;5.902;2024-01-16T01:13:25;100845.94;;;1.61;87.54
38466;BME280;24244;51.950;5.902;2024-01-16T01:15:53;100838.81;;;1.63;87.46
38466;BME280;24244;51.950;5.902;2024-01-16T01:18:20;100834.41;;;1.63;87.58
38466;BME280;24244;51.950;5.902;2024-01-16T01:20:47;100834.41;;;1.63;87.36
38466;BME280;24244;51.950;5.902;2024-01-16T01:23:14;100824.59;;;1.65;87.18
38466;BME280;24244;51.950;5.902;2024-01-16T01:25:41;100822.09;;;1.64;86.84
38466;BME280;24244;51.950;5.902;2024-01-16T01:28:10;100812.59;;;1.63;87.49
38466;BME280;24244;51.950;5.902;2024-01-16T01:30:37;100810.94;;;1.62;87.19
38466;BME280;24244;51.950;5.902;2024-01-16T01:33:06;100815.34;;;1.61;87.36
38466;BME280;24244;51.950;5.902;2024-01-16T01:35:33;100822.38;;;1.61;87.44
38466;BME280;24244;51.950;5.902;2024-01-16T01:38:02;100818.09;;;1.60;87.34
38466;BME280;24244;51.950;5.902;2024-01-16T01:40:29;100818.09;;;1.60;87.62
38466;BME280;24244;51.950;5.902;2024-01-16T01:42:56;100814.75;;;1.57;87.33
38466;BME280;24244;51.950;5.902;2024-01-16T01:45:23;100815.88;;;1.55;87.01
38466;BME280;24244;51.950;5.902;2024-01-16T01:47:50;100816.53;;;1.57;87.29
38466;BME280;24244;51.950;5.902;2024-01-16T01:50:19;100815.59;;;1.58;87.30
38466;BME280;24244;51.950;5.902;2024-01-16T01:52:46;100816.44;;;1.58;87.68
38466;BME280;24244;51.950;5.902;2024-01-16T01:55:14;100820.81;;;1.58;87.33
38466;BME280;24244;51.950;5.902;2024-01-16T01:57:41;100824.41;;;1.57;87.09
38466;BME280;24244;51.950;5.902;2024-01-16T02:00:11;100826.06;;;1.58;87.10
38466;BME280;24244;51.950;5.902;2024-01-16T02:02:38;100833.09;;;1.57;87.32
38466;BME280;24244;51.950;5.902;2024-01-16T02:05:07;100829.63;;;1.57;87.38
38466;BME280;24244;51.950;5.902;2024-01-16T02:07:36;100830.63;;;1.56;87.00
38466;BME280;24244;51.950;5.902;2024-01-16T02:10:04;100830.63;;;1.56;87.40
38466;BME280;24244;51.950;5.902;2024-01-16T02:12:30;100823.44;;;1.58;87.30
38466;BME280;24244;51.950;5.902;2024-01-16T02:14:57;100815.59;;;1.58;87.18
38466;BME280;24244;51.950;5.902;2024-01-16T02:17:24;100817.53;;;1.56;86.92
38466;BME280;24244;51.950;5.902;2024-01-16T02:19:51;100826.47;;;1.53;87.54
38466;BME280;24244;51.950;5.902;2024-01-16T02:22:20;100819.56;;;1.52;87.28
38466;BME280;24244;51.950;5.902;2024-01-16T02:24:49;100825.03;;;1.49;87.33
38466;BME280;24244;51.950;5.902;2024-01-16T02:27:16;100824.91;;;1.51;87.13
38466;BME280;24244;51.950;5.902;2024-01-16T02:29:43;100818.28;;;1.47;87.52
38466;BME280;24244;51.950;5.902;2024-01-16T02:32:12;100832.22;;;1.47;87.24
38466;BME280;24244;51.950;5.902;2024-01-16T02:34:40;100836.50;;;1.48;87.38
38466;BME280;24244;51.950;5.902;2024-01-16T02:37:08;100826.84;;;1.49;87.67
38466;BME280;24244;51.950;5.902;2024-01-16T02:39:35;100836.34;;;1.50;87.60
38466;BME280;24244;51.950;5.902;2024-01-16T02:42:03;100845.97;;;1.49;87.70
38466;BME280;24244;51.950;5.902;2024-01-16T02:44:30;100842.41;;;1.50;87.51
38466;BME280;24244;51.950;5.902;2024-01-16T02:46:57;100846.59;;;1.53;87.88
38466;BME280;24244;51.950;5.902;2024-01-16T02:49:24;100843.84;;;1.54;87.48
38466;BME280;24244;51.950;5.902;2024-01-16T02:51:53;100846.34;;;1.56;87.58
38466;BME280;24244;51.950;5.902;2024-01-16T02:54:21;100840.94;;;1.57;87.35
38466;BME280;24244;51.950;5.902;2024-01-16T02:56:47;100852.25;;;1.58;87.39
38466;BME280;24244;51.950;5.902;2024-01-16T02:59:16;100850.34;;;1.60;87.73
38466;BME280;24244;51.950;5.902;2024-01-16T03:01:43;100847.63;;;1.62;87.72
38466;BME280;24244;51.950;5.902;2024-01-16T03:04:10;100850.13;;;1.63;87.55
38466;BME280;24244;51.950;5.902;2024-01-16T03:06:37;100850.81;;;1.65;87.52
38466;BME280;24244;51.950;5.902;2024-01-16T03:09:04;100837.59;;;1.67;87.43
38466;BME280;24244;51.950;5.902;2024-01-16T03:11:31;100844.50;;;1.68;87.70
38466;BME280;24244;51.950;5.902;2024-01-16T03:13:59;100844.38;;;1.69;87.61
38466;BME280;24244;51.950;5.902;2024-01-16T03:16:28;100835.56;;;1.70;87.36
38466;BME280;24244;51.950;5.902;2024-01-16T03:18:56;100832.94;;;1.70;87.74
38466;BME280;24244;51.950;5.902;2024-01-16T03:21:23;100844.09;;;1.72;87.65
38466;BME280;24244;51.950;5.902;2024-01-16T03:23:50;100845.66;;;1.75;87.59
38466;BME280;24244;51.950;5.902;2024-01-16T03:26:17;100847.19;;;1.77;87.31
38466;BME280;24244;51.950;5.902;2024-01-16T03:28:44;100840.97;;;1.78;87.58
38466;BME280;24244;51.950;5.902;2024-01-16T03:31:12;100840.00;;;1.79;87.48
38466;BME280;24244;51.950;5.902;2024-01-16T03:33:41;100845.97;;;1.81;87.67
38466;BME280;24244;51.950;5.902;2024-01-16T03:36:10;100843.34;;;1.81;87.69
38466;BME280;24244;51.950;5.902;2024-01-16T03:38:39;100838.94;;;1.82;87.52
38466;BME280;24244;51.950;5.902;2024-01-16T03:41:07;100831.91;;;1.82;87.52
38466;BME280;24244;51.950;5.902;2024-01-16T03:43:35;100829.28;;;1.82;87.84
38466;BME280;24244;51.950;5.902;2024-01-16T03:46:02;100832.75;;;1.83;87.95
38466;BME280;24244;51.950;5.902;2024-01-16T03:48:29;100832.75;;;1.83;87.83
38466;BME280;24244;51.950;5.902;2024-01-16T03:50:58;100824.75;;;1.84;87.36
38466;BME280;24244;51.950;5.902;2024-01-16T03:53:24;100824.75;;;1.84;87.60
38466;BME280;24244;51.950;5.902;2024-01-16T03:55:51;100830.69;;;1.86;88.15
38466;BME280;24244;51.950;5.902;2024-01-16T03:58:18;100826.25;;;1.87;87.57
38466;BME280;24244;51.950;5.902;2024-01-16T04:00:47;100830.56;;;1.88;87.62
38466;BME280;24244;51.950;5.902;2024-01-16T04:03:14;100823.53;;;1.88;87.74
38466;BME280;24244;51.950;5.902;2024-01-16T04:05:41;100834.72;;;1.90;87.35
38466;BME280;24244;51.950;5.902;2024-01-16T04:08:09;100832.09;;;1.90;87.94
38466;BME280;24244;51.950;5.902;2024-01-16T04:10:36;100827.69;;;1.91;87.36
38466;BME280;24244;51.950;5.902;2024-01-16T04:13:03;100836.22;;;1.93;87.41
38466;BME280;24244;51.950;5.902;2024-01-16T04:15:30;100840.63;;;1.92;87.35
38466;BME280;24244;51.950;5.902;2024-01-16T04:17:57;100844.94;;;1.93;87.54
38466;BME280;24244;51.950;5.902;2024-01-16T04:20:24;100839.56;;;1.95;87.91
38466;BME280;24244;51.950;5.902;2024-01-16T04:22:51;100836.94;;;1.95;87.58
38466;BME280;24244;51.950;5.902;2024-01-16T04:25:19;100836.00;;;1.96;87.46
38466;BME280;24244;51.950;5.902;2024-01-16T04:27:46;100840.41;;;1.95;87.68
38466;BME280;24244;51.950;5.902;2024-01-16T04:30:13;100839.44;;;1.96;87.77
38466;BME280;24244;51.950;5.902;2024-01-16T04:32:40;100830.75;;;1.96;87.68
38466;BME280;24244;51.950;5.902;2024-01-16T04:35:08;100828.97;;;1.96;87.61
38466;BME280;24244;51.950;5.902;2024-01-16T04:37:35;100836.69;;;1.98;87.70
38466;BME280;24244;51.950;5.902;2024-01-16T04:40:02;100835.03;;;1.97;87.38
38466;BME280;24244;51.950;5.902;2024-01-16T04:42:31;100833.91;;;2.00;87.63
38466;BME280;24244;51.950;5.902;2024-01-16T04:44:59;100837.97;;;2.04;87.57
38466;BME280;24244;51.950;5.902;2024-01-16T04:47:26;100832.72;;;2.04;87.86
38466;BME280;24244;51.950;5.902;2024-01-16T04:49:53;100838.69;;;2.06;87.74
38466;BME280;24244;51.950;5.902;2024-01-16T04:52:20;100830.81;;;2.06;87.71
38466;BME280;24244;51.950;5.902;2024-01-16T04:54:47;100826.53;;;2.05;87.77
38466;BME280;24244;51.950;5.902;2024-01-16T04:57:14;100824.84;;;2.04;87.64
38466;BME280;24244;51.950;5.902;2024-01-16T04:59:43;100830.81;;;2.06;87.77
38466;BME280;24244;51.950;5.902;2024-01-16T05:02:10;100813.41;;;2.05;87.66
38466;BME280;24244;51.950;5.902;2024-01-16T05:04:37;100821.28;;;2.05;87.73
38466;BME280;24244;51.950;5.902;2024-01-16T05:07:04;100823.91;;;2.05;87.58
38466;BME280;24244;51.950;5.902;2024-01-16T05:09:31;100812.00;;;2.01;87.70
38466;BME280;24244;51.950;5.902;2024-01-16T05:11:58;100815.44;;;2.01;88.02
38466;BME280;24244;51.950;5.902;2024-01-16T05:14:25;100806.75;;;2.01;87.66
38466;BME280;24244;51.950;5.902;2024-01-16T05:16:53;100797.94;;;2.02;87.88
38466;BME280;24244;51.950;5.902;2024-01-16T05:19:20;100795.44;;;2.00;87.66
38466;BME280;24244;51.950;5.902;2024-01-16T05:21:47;100798.22;;;1.99;87.82
38466;BME280;24244;51.950;5.902;2024-01-16T05:24:14;100795.59;;;1.99;87.55
38466;BME280;24244;51.950;5.902;2024-01-16T05:26:41;100796.66;;;1.96;87.71
38466;BME280;24244;51.950;5.902;2024-01-16T05:29:08;100785.34;;;1.95;88.06
38466;BME280;24244;51.950;5.902;2024-01-16T05:31:39;100780.22;;;1.94;88.09
38466;BME280;24244;51.950;5.902;2024-01-16T05:34:08;100784.63;;;1.93;87.74
38466;BME280;24244;51.950;5.902;2024-01-16T05:36:35;100779.41;;;1.93;87.99
38466;BME280;24244;51.950;5.902;2024-01-16T05:39:02;100784.63;;;1.93;87.71
38466;BME280;24244;51.950;5.902;2024-01-16T05:41:32;100777.72;;;1.92;87.66
38466;BME280;24244;51.950;5.902;2024-01-16T05:44:00;100786.44;;;1.93;88.08
38466;BME280;24244;51.950;5.902;2024-01-16T05:46:30;100782.16;;;1.92;88.33
38466;BME280;24244;51.950;5.902;2024-01-16T05:48:57;100780.22;;;1.94;87.93
38466;BME280;24244;51.950;5.902;2024-01-16T05:51:28;100777.72;;;1.92;88.27
38466;BME280;24244;51.950;5.902;2024-01-16T05:53:56;100774.16;;;1.93;87.99
38466;BME280;24244;51.950;5.902;2024-01-16T05:56:22;100773.31;;;1.93;87.58
38466;BME280;24244;51.950;5.902;2024-01-16T05:58:49;100773.31;;;1.93;88.12
38466;BME280;24244;51.950;5.902;2024-01-16T06:01:16;100770.72;;;1.93;87.95
38466;BME280;24244;51.950;5.902;2024-01-16T06:03:43;100771.66;;;1.92;87.58
38466;BME280;24244;51.950;5.902;2024-01-16T06:06:13;100768.38;;;1.90;88.09
38466;BME280;24244;51.950;5.902;2024-01-16T06:08:41;100763.94;;;1.90;88.15
38466;BME280;24244;51.950;5.902;2024-01-16T06:11:08;100766.56;;;1.90;87.99
38466;BME280;24244;51.950;5.902;2024-01-16T06:13:40;100768.09;;;1.93;88.30
38466;BME280;24244;51.950;5.902;2024-01-16T06:16:09;100769.03;;;1.92;87.83
38466;BME280;24244;51.950;5.902;2024-01-16T06:18:36;100769.19;;;1.90;87.89
38466;BME280;24244;51.950;5.902;2024-01-16T06:21:04;100769.19;;;1.90;88.36
38466;BME280;24244;51.950;5.902;2024-01-16T06:23:30;100772.66;;;1.91;88.17
38466;BME280;24244;51.950;5.902;2024-01-16T06:25:59;100770.88;;;1.91;88.23
38466;BME280;24244;51.950;5.902;2024-01-16T06:28:26;100773.59;;;1.90;87.90
38466;BME280;24244;51.950;5.902;2024-01-16T06:30:53;100773.47;;;1.91;88.38
38466;BME280;24244;51.950;5.902;2024-01-16T06:33:20;100770.88;;;1.91;88.18
38466;BME280;24244;51.950;5.902;2024-01-16T06:35:47;100772.38;;;1.94;87.83
38466;BME280;24244;51.950;5.902;2024-01-16T06:38:18;100771.41;;;1.95;88.21
38466;BME280;24244;51.950;5.902;2024-01-16T06:40:45;100777.38;;;1.97;88.28
38466;BME280;24244;51.950;5.902;2024-01-16T06:43:14;100782.47;;;1.99;87.76
38466;BME280;24244;51.950;5.902;2024-01-16T06:45:42;100777.25;;;1.99;87.84
38466;BME280;24244;51.950;5.902;2024-01-16T06:48:09;100773.63;;;2.00;87.87
38466;BME280;24244;51.950;5.902;2024-01-16T06:50:36;100777.25;;;1.99;87.82
38466;BME280;24244;51.950;5.902;2024-01-16T06:53:03;100771.00;;;2.00;88.24
38466;BME280;24244;51.950;5.902;2024-01-16T06:55:29;100780.66;;;1.99;87.68
38466;BME280;24244;51.950;5.902;2024-01-16T06:57:56;100782.31;;;2.00;87.78
38466;BME280;24244;51.950;5.902;2024-01-16T07:00:24;100777.91;;;2.01;87.92
38466;BME280;24244;51.950;5.902;2024-01-16T07:02:53;100780.53;;;2.01;88.20
38466;BME280;24244;51.950;5.902;2024-01-16T07:05:23;100782.22;;;2.02;87.65
38466;BME280;24244;51.950;5.902;2024-01-16T07:07:50;100781.38;;;2.01;87.99
38466;BME280;24244;51.950;5.902;2024-01-16T07:10:17;100771.72;;;2.02;88.26
38466;BME280;24244;51.950;5.902;2024-01-16T07:12:48;100775.88;;;2.04;88.20
38466;BME280;24244;51.950;5.902;2024-01-16T07:15:16;100778.50;;;2.04;87.92
38466;BME280;24244;51.950;5.902;2024-01-16T07:17:45;100770.63;;;2.04;87.85
38466;BME280;24244;51.950;5.902;2024-01-16T07:20:12;100776.72;;;2.05;87.57
38466;BME280;24244;51.950;5.902;2024-01-16T07:22:39;100774.94;;;2.05;88.27
38466;BME280;24244;51.950;5.902;2024-01-16T07:25:06;100775.88;;;2.04;88.22
38466;BME280;24244;51.950;5.902;2024-01-16T07:27:33;100784.56;;;2.05;88.05
38466;BME280;24244;51.950;5.902;2024-01-16T07:30:01;100781.13;;;2.04;87.97
38466;BME280;24244;51.950;5.902;2024-01-16T07:32:28;100779.34;;;2.05;87.92
38466;BME280;24244;51.950;5.902;2024-01-16T07:34:59;100782.78;;;2.05;87.82
38466;BME280;24244;51.950;5.902;2024-01-16T07:37:26;100780.28;;;2.04;87.66
38466;BME280;24244;51.950;5.902;2024-01-16T07:39:53;100786.38;;;2.04;88.17
38466;BME280;24244;51.950;5.902;2024-01-16T07:42:20;100782.09;;;2.03;87.72
38466;BME280;24244;51.950;5.902;2024-01-16T07:44:46;100789.94;;;2.03;88.12
38466;BME280;24244;51.950;5.902;2024-01-16T07:47:13;100800.56;;;2.02;87.75
38466;BME280;24244;51.950;5.902;2024-01-16T07:49:40;100799.59;;;2.03;87.80
38466;BME280;24244;51.950;5.902;2024-01-16T07:52:10;100804.84;;;2.03;87.84
38466;BME280;24244;51.950;5.902;2024-01-16T07:54:39;100806.63;;;2.02;88.20
38466;BME280;24244;51.950;5.902;2024-01-16T07:57:06;100797.94;;;2.02;87.99
38466;BME280;24244;51.950;5.902;2024-01-16T07:59:33;100805.69;;;2.03;87.77
38466;BME280;24244;51.950;5.902;2024-01-16T08:02:00;100803.88;;;2.04;88.15
38466;BME280;24244;51.950;5.902;2024-01-16T08:04:26;100804.84;;;2.03;87.86
38466;BME280;24244;51.950;5.902;2024-01-16T08:06:53;100815.19;;;2.04;87.92
38466;BME280;24244;51.950;5.902;2024-01-16T08:09:22;100809.97;;;2.04;88.01
38466;BME280;24244;51.950;5.902;2024-01-16T08:11:48;100813.41;;;2.05;88.05
38466;BME280;24244;51.950;5.902;2024-01-16T08:14:15;100817.94;;;2.03;88.05
38466;BME280;24244;51.950;5.902;2024-01-16T08:16:42;100816.28;;;2.02;87.85
38466;BME280;24244;51.950;5.902;2024-01-16T08:19:09;100812.00;;;2.01;87.94
38466;BME280;24244;51.950;5.902;2024-01-16T08:21:36;100821.94;;;1.97;87.92
38466;BME280;24244;51.950;5.902;2024-01-16T08:24:03;100818.34;;;1.98;88.00
38466;BME280;24244;51.950;5.902;2024-01-16T08:26:32;100813.94;;;1.99;88.01
38466;BME280;24244;51.950;5.902;2024-01-16T08:28:59;100816.56;;;1.99;88.29
38466;BME280;24244;51.950;5.902;2024-01-16T08:31:26;100809.66;;;1.98;88.09
38466;BME280;24244;51.950;5.902;2024-01-16T08:33:53;100818.34;;;1.98;88.24
38466;BME280;24244;51.950;5.902;2024-01-16T08:36:23;100824.66;;;1.95;88.05
38466;BME280;24244;51.950;5.902;2024-01-16T08:38:50;100811.69;;;1.94;88.11
38466;BME280;24244;51.950;5.902;2024-01-16T08:41:17;100823.13;;;1.93;87.84
38466;BME280;24244;51.950;5.902;2024-01-16T08:43:45;100814.44;;;1.92;87.81
38466;BME280;24244;51.950;5.902;2024-01-16T08:46:12;100805.59;;;1.93;88.42
38466;BME280;24244;51.950;5.902;2024-01-16T08:48:39;100818.84;;;1.92;88.04
38466;BME280;24244;51.950;5.902;2024-01-16T08:51:10;100819.66;;;1.92;87.86
38466;BME280;24244;51.950;5.902;2024-01-16T08:53:38;100818.84;;;1.92;87.69
38466;BME280;24244;51.950;5.902;2024-01-16T08:56:05;100820.78;;;1.90;88.15
38466;BME280;24244;51.950;5.902;2024-01-16T08:58:35;100828.53;;;1.91;88.05
38466;BME280;24244;51.950;5.902;2024-01-16T09:01:04;100822.44;;;1.91;88.11
38466;BME280;24244;51.950;5.902;2024-01-16T09:03:34;100824.22;;;1.90;87.65
38466;BME280;24244;51.950;5.902;2024-01-16T09:06:02;100823.28;;;1.91;88.23
38466;BME280;24244;51.950;5.902;2024-01-16T09:08:29;100824.22;;;1.90;87.77
38466;BME280;24244;51.950;5.902;2024-01-16T09:10:56;100814.44;;;1.92;87.88
38466;BME280;24244;51.950;5.902;2024-01-16T09:13:23;100814.44;;;1.92;87.83
38466;BME280;24244;51.950;5.902;2024-01-16T09:15:50;100814.44;;;1.92;87.69
38466;BME280;24244;51.950;5.902;2024-01-16T09:18:18;100817.63;;;1.96;88.00
38466;BME280;24244;51.950;5.902;2024-01-16T09:20:46;100821.22;;;1.95;87.52
38466;BME280;24244;51.950;5.902;2024-01-16T09:23:13;100817.75;;;1.94;87.87
38466;BME280;24244;51.950;5.902;2024-01-16T09:25:40;100816.09;;;1.93;87.79
38466;BME280;24244;51.950;5.902;2024-01-16T09:28:09;100811.69;;;1.94;87.55
38466;BME280;24244;51.950;5.902;2024-01-16T09:30:36;100816.94;;;1.94;87.65
38466;BME280;24244;51.950;5.902;2024-01-16T09:33:03;100811.56;;;1.95;87.76
38466;BME280;24244;51.950;5.902;2024-01-16T09:35:35;100807.16;;;1.96;87.61
38466;BME280;24244;51.950;5.902;2024-01-16T09:38:02;100806.88;;;1.99;87.64
38466;BME280;24244;51.950;5.902;2024-01-16T09:40:28;100805.09;;;2.00;87.31
38466;BME280;24244;51.950;5.902;2024-01-16T09:42:56;100798.22;;;1.99;87.12
38466;BME280;24244;51.950;5.902;2024-01-16T09:45:24;100794.59;;;2.00;87.16
38466;BME280;24244;51.950;5.902;2024-01-16T09:47:52;100802.34;;;2.01;87.28
38466;BME280;24244;51.950;5.902;2024-01-16T09:50:20;100802.47;;;2.00;87.15
38466;BME280;24244;51.950;5.902;2024-01-16T09:52:48;100807.03;;;1.98;87.12
38466;BME280;24244;51.950;5.902;2024-01-16T09:55:16;100806.19;;;1.97;87.42
38466;BME280;24244;51.950;5.902;2024-01-16T09:57:45;100808.94;;;1.95;87.60
38466;BME280;24244;51.950;5.902;2024-01-16T10:00:13;100803.69;;;1.95;87.38
38466;BME280;24244;51.950;5.902;2024-01-16T10:02:42;100799.28;;;1.96;87.56
38466;BME280;24244;51.950;5.902;2024-01-16T10:05:10;100792.25;;;1.96;87.02
38466;BME280;24244;51.950;5.902;2024-01-16T10:07:38;100790.34;;;1.99;87.19
38466;BME280;24244;51.950;5.902;2024-01-16T10:10:08;100794.59;;;2.00;87.14
38466;BME280;24244;51.950;5.902;2024-01-16T10:12:38;100796.38;;;1.99;87.11
38466;BME280;24244;51.950;5.902;2024-01-16T10:15:07;100796.28;;;2.01;87.35
38466;BME280;24244;51.950;5.902;2024-01-16T10:17:39;100794.34;;;2.03;87.35
38466;BME280;24244;51.950;5.902;2024-01-16T10:20:08;100785.66;;;2.02;86.97
38466;BME280;24244;51.950;5.902;2024-01-16T10:22:40;100777.66;;;2.04;87.13
38466;BME280;24244;51.950;5.902;2024-01-16T10:25:10;100794.09;;;2.06;86.67
38466;BME280;24244;51.950;5.902;2024-01-16T10:27:40;100784.44;;;2.06;87.25
38466;BME280;24244;51.950;5.902;2024-01-16T10:30:07;100769.41;;;2.08;87.17
38466;BME280;24244;51.950;5.902;2024-01-16T10:32:37;100772.03;;;2.08;87.26
38466;BME280;24244;51.950;5.902;2024-01-16T10:35:07;100769.28;;;2.10;86.63
38466;BME280;24244;51.950;5.902;2024-01-16T10:37:41;100763.91;;;2.11;86.92
38466;BME280;24244;51.950;5.902;2024-01-16T10:40:14;100770.81;;;2.12;86.54
38466;BME280;24244;51.950;5.902;2024-01-16T10:42:41;100768.03;;;2.14;86.67
38466;BME280;24244;51.950;5.902;2024-01-16T10:45:08;100771.50;;;2.14;86.83
38466;BME280;24244;51.950;5.902;2024-01-16T10:47:35;100767.09;;;2.15;86.51
38466;BME280;24244;51.950;5.902;2024-01-16T10:50:05;100766.00;;;2.17;86.56
38466;BME280;24244;51.950;5.902;2024-01-16T10:52:33;100767.53;;;2.20;86.75
38466;BME280;24244;51.950;5.902;2024-01-16T10:55:03;100766.41;;;2.22;86.30
38466;BME280;24244;51.950;5.902;2024-01-16T10:57:38;100766.28;;;2.24;86.55
38466;BME280;24244;51.950;5.902;2024-01-16T11:00:08;100766.03;;;2.27;86.21
38466;BME280;24244;51.950;5.902;2024-01-16T11:02:40;100778.03;;;2.29;86.27
38466;BME280;24244;51.950;5.902;2024-01-16T11:05:10;100778.88;;;2.30;86.39
38466;BME280;24244;51.950;5.902;2024-01-16T11:07:40;100774.34;;;2.32;86.51
38466;BME280;24244;51.950;5.902;2024-01-16T11:10:09;100774.88;;;2.35;86.37
38466;BME280;24244;51.950;5.902;2024-01-16T11:12:38;100777.25;;;2.39;86.57
38466;BME280;24244;51.950;5.902;2024-01-16T11:15:07;100770.94;;;2.41;86.37
38466;BME280;24244;51.950;5.902;2024-01-16T11:17:36;100780.31;;;2.44;86.59
38466;BME280;24244;51.950;5.902;2024-01-16T11:20:05;100767.88;;;2.46;85.87
38466;BME280;24244;51.950;5.902;2024-01-16T11:22:57;100761.56;;;2.48;86.09
38466;BME280;24244;51.950;5.902;2024-01-16T11:25:32;100759.47;;;2.52;86.15
38466;BME280;24244;51.950;5.902;2024-01-16T11:28:10;100748.97;;;2.52;85.89
38466;BME280;24244;51.950;5.902;2024-01-16T11:30:38;100741.94;;;2.52;85.75
38466;BME280;24244;51.950;5.902;2024-01-16T11:33:05;100734.78;;;2.54;86.20
38466;BME280;24244;51.950;5.902;2024-01-16T11:35:33;100728.56;;;2.55;85.97
38466;BME280;24244;51.950;5.902;2024-01-16T11:38:14;100723.03;;;2.58;86.17
38466;BME280;24244;51.950;5.902;2024-01-16T11:40:42;100717.66;;;2.60;86.00
38466;BME280;24244;51.950;5.902;2024-01-16T11:43:38;100721.94;;;2.61;85.83
38466;BME280;24244;51.950;5.902;2024-01-16T11:46:06;100722.78;;;2.61;85.90
38466;BME280;24244;51.950;5.902;2024-01-16T11:48:36;100720.56;;;2.66;85.65
38466;BME280;24244;51.950;5.902;2024-01-16T11:51:23;100713.41;;;2.68;85.41
38466;BME280;24244;51.950;5.902;2024-01-16T11:54:01;100714.22;;;2.69;85.70
38466;BME280;24244;51.950;5.902;2024-01-16T11:56:52;100714.22;;;2.69;85.51
38466;BME280;24244;51.950;5.902;2024-01-16T11:59:58;100720.00;;;2.72;85.46
38466;BME280;24244;51.950;5.902;2024-01-16T12:02:46;100718.94;;;2.75;84.81
38466;BME280;24244;51.950;5.902;2024-01-16T12:05:14;100732.75;;;2.77;85.33
38466;BME280;24244;51.950;5.902;2024-01-16T12:07:48;100727.34;;;2.79;85.11
38466;BME280;24244;51.950;5.902;2024-01-16T12:10:16;100721.97;;;2.80;85.03
38466;BME280;24244;51.950;5.902;2024-01-16T12:12:45;100720.03;;;2.82;85.07
38466;BME280;24244;51.950;5.902;2024-01-16T12:15:16;100725.81;;;2.86;84.84
38466;BME280;24244;51.950;5.902;2024-01-16T12:17:53;100721.28;;;2.88;84.61
38466;BME280;24244;51.950;5.902;2024-01-16T12:20:22;100712.56;;;2.87;84.77
38466;BME280;24244;51.950;5.902;2024-01-16T12:22:58;100715.19;;;2.87;84.79
38466;BME280;24244;51.950;5.902;2024-01-16T12:25:26;100710.66;;;2.89;84.80
38466;BME280;24244;51.950;5.902;2024-01-16T12:28:13;100706.75;;;2.93;84.85
38466;BME280;24244;51.950;5.902;2024-01-16T12:30:59;100703.75;;;2.98;84.50
38466;BME280;24244;51.950;5.902;2024-01-16T12:33:28;100692.81;;;3.02;84.47
38466;BME280;24244;51.950;5.902;2024-01-16T12:36:01;100690.06;;;3.04;84.34
38466;BME280;24244;51.950;5.902;2024-01-16T12:38:29;100684.38;;;3.08;84.64
38466;BME280;24244;51.950;5.902;2024-01-16T12:40:57;100677.06;;;3.12;84.17
38466;BME280;24244;51.950;5.902;2024-01-16T12:43:26;100677.59;;;3.15;84.30
38466;BME280;24244;51.950;5.902;2024-01-16T12:45:54;100676.34;;;3.20;83.99
38466;BME280;24244;51.950;5.902;2024-01-16T12:48:24;100675.22;;;3.22;84.38
38466;BME280;24244;51.950;5.902;2024-01-16T12:50:58;100668.88;;;3.25;84.29
38466;BME280;24244;51.950;5.902;2024-01-16T12:53:27;100660.88;;;3.26;84.07
38466;BME280;24244;51.950;5.902;2024-01-16T12:55:57;100663.88;;;3.31;84.21
38466;BME280;24244;51.950;5.902;2024-01-16T12:58:28;100655.69;;;3.34;83.94
38466;BME280;24244;51.950;5.902;2024-01-16T13:01:23;100658.19;;;3.36;83.81
38466;BME280;24244;51.950;5.902;2024-01-16T13:04:06;100654.72;;;3.35;83.81
38466;BME280;24244;51.950;5.902;2024-01-16T13:06:34;100653.75;;;3.36;83.81
38466;BME280;24244;51.950;5.902;2024-01-16T13:09:06;100660.69;;;3.37;84.10